sensor_id;sensor_type;location;lat;lon;timestamp;pressure;altitude;pressure_sealevel;temperature;humidity
75460;BME280;64039;53.060;9.342;2023-04-12T00:01:03;100586.59;;;1.97;100.00
75460;BME280;64039;53.060;9.342;2023-04-12T00:03:29;100575.91;;;2.06;100.00
75460;BME280;64039;53.060;9.342;2023-04-12T00:05:58;100572.72;;;2.10;100.00
75460;BME280;64039;53.060;9.342;2023-04-12T00:08:24;100561.72;;;2.12;100.00
75460;BME280;64039;53.060;9.342;2023-04-12T00:10:51;100548.94;;;2.14;100.00
75460;BME280;64039;53.060;9.342;2023-04-12T00:13:17;100547.56;;;2.20;100.00
75460;BME280;64039;53.060;9.342;2023-04-12T00:15:44;100553.81;;;2.26;100.00
75460;BME280;64039;53.060;9.342;2023-04-12T00:18:09;100549.72;;;2.29;100.00
75460;BME280;64039;53.060;9.342;2023-04-12T00:20:35;100539.19;;;2.25;100.00
75460;BME280;64039;53.060;9.342;2023-04-12T00:23:00;100532.47;;;2.27;100.00
75460;BME280;64039;53.060;9.342;2023-04-12T00:25:26;100526.75;;;2.32;100.00
75460;BME280;64039;53.060;9.342;2023-04-12T00:27:52;100518.47;;;2.38;100.00
75460;BME280;64039;53.060;9.342;2023-04-12T00:30:17;100517.75;;;2.41;100.00
75460;BME280;64039;53.060;9.342;2023-04-12T00:32:42;100510.84;;;2.40;100.00
75460;BME280;64039;53.060;9.342;2023-04-12T00:35:08;100513.94;;;2.50;100.00
75460;BME280;64039;53.060;9.342;2023-04-12T00:37:33;100507.94;;;2.50;100.00
75460;BME280;64039;53.060;9.342;2023-04-12T00:40:01;100506.91;;;2.46;100.00
75460;BME280;64039;53.060;9.342;2023-04-12T00:42:26;100494.84;;;2.63;100.00
75460;BME280;64039;53.060;9.342;2023-04-12T00:44:52;100488.47;;;2.55;100.00
75460;BME280;64039;53.060;9.342;2023-04-12T00:47:17;100488.97;;;2.66;100.00
75460;BME280;64039;53.060;9.342;2023-04-12T00:49:43;100476.44;;;2.72;100.00
75460;BME280;64039;53.060;9.342;2023-04-12T00:52:09;100473.72;;;2.69;100.00
75460;BME280;64039;53.060;9.342;2023-04-12T00:54:39;100473.56;;;2.66;100.00
75460;BME280;64039;53.060;9.342;2023-04-12T00:57:04;100465.03;;;2.67;100.00
75460;BME280;64039;53.060;9.342;2023-04-12T00:59:30;100462.63;;;2.70;100.00
75460;BME280;64039;53.060;9.342;2023-04-12T01:01:56;100460.06;;;2.70;100.00
75460;BME280;64039;53.060;9.342;2023-04-12T01:04:23;100460.34;;;2.76;100.00
75460;BME280;64039;53.060;9.342;2023-04-12T01:07:07;100447.75;;;2.82;100.00
75460;BME280;64039;53.060;9.342;2023-04-12T01:12:57;100431.97;;;2.93;100.00
75460;BME280;64039;53.060;9.342;2023-04-12T01:15:26;100425.66;;;2.86;100.00
75460;BME280;64039;53.060;9.342;2023-04-12T01:17:55;100416.06;;;2.82;100.00
75460;BME280;64039;53.060;9.342;2023-04-12T01:20:32;100416.06;;;2.82;100.00
75460;BME280;64039;53.060;9.342;2023-04-12T01:26:49;100401.16;;;2.75;100.00
75460;BME280;64039;53.060;9.342;2023-04-12T01:28:47;100402.13;;;2.77;100.00
75460;BME280;64039;53.060;9.342;2023-04-12T01:31:17;100398.44;;;2.72;100.00
75460;BME280;64039;53.060;9.342;2023-04-12T01:33:44;100390.88;;;2.75;100.00
75460;BME280;64039;53.060;9.342;2023-04-12T01:36:20;100386.06;;;2.82;100.00
75460;BME280;64039;53.060;9.342;2023-04-12T01:38:47;100382.69;;;2.83;100.00
75460;BME280;64039;53.060;9.342;2023-04-12T01:41:14;100374.38;;;2.89;100.00
75460;BME280;64039;53.060;9.342;2023-04-12T01:43:43;100375.56;;;2.96;100.00
75460;BME280;64039;53.060;9.342;2023-04-12T01:46:10;100369.19;;;3.07;100.00
75460;BME280;64039;53.060;9.342;2023-04-12T01:48:37;100357.47;;;3.14;100.00
75460;BME280;64039;53.060;9.342;2023-04-12T01:52:09;100357.41;;;3.12;100.00
75460;BME280;64039;53.060;9.342;2023-04-12T01:54:21;100351.53;;;3.15;100.00
75460;BME280;64039;53.060;9.342;2023-04-12T01:56:51;100350.31;;;3.26;100.00
75460;BME280;64039;53.060;9.342;2023-04-12T01:59:18;100343.22;;;3.21;100.00
75460;BME280;64039;53.060;9.342;2023-04-12T02:01:46;100340.06;;;3.28;100.00
75460;BME280;64039;53.060;9.342;2023-04-12T02:04:13;100334.03;;;3.27;100.00
75460;BME280;64039;53.060;9.342;2023-04-12T02:06:40;100331.66;;;3.32;100.00
75460;BME280;64039;53.060;9.342;2023-04-12T02:09:06;100328.66;;;3.42;100.00
75460;BME280;64039;53.060;9.342;2023-04-12T02:11:32;100320.75;;;3.38;100.00
75460;BME280;64039;53.060;9.342;2023-04-12T02:13:57;100318.47;;;3.44;100.00
75460;BME280;64039;53.060;9.342;2023-04-12T02:16:23;100309.22;;;3.49;100.00
75460;BME280;64039;53.060;9.342;2023-04-12T02:18:49;100302.13;;;3.43;100.00
75460;BME280;64039;53.060;9.342;2023-04-12T02:21:15;100292.66;;;3.42;100.00
75460;BME280;64039;53.060;9.342;2023-04-12T02:23:40;100286.66;;;3.63;100.00
75460;BME280;64039;53.060;9.342;2023-04-12T02:26:08;100283.69;;;3.54;100.00
75460;BME280;64039;53.060;9.342;2023-04-12T02:28:34;100268.06;;;3.49;100.00
75460;BME280;64039;53.060;9.342;2023-04-12T02:31:01;100270.69;;;3.51;100.00
75460;BME280;64039;53.060;9.342;2023-04-12T02:33:27;100257.38;;;3.61;100.00
75460;BME280;64039;53.060;9.342;2023-04-12T02:35:53;100262.41;;;3.58;100.00
75460;BME280;64039;53.060;9.342;2023-04-12T02:38:20;100255.63;;;3.60;100.00
75460;BME280;64039;53.060;9.342;2023-04-12T02:40:45;100246.56;;;3.70;100.00
75460;BME280;64039;53.060;9.342;2023-04-12T02:43:11;100243.00;;;3.66;100.00
75460;BME280;64039;53.060;9.342;2023-04-12T02:45:36;100231.63;;;3.82;100.00
75460;BME280;64039;53.060;9.342;2023-04-12T02:48:02;100240.09;;;3.80;100.00
75460;BME280;64039;53.060;9.342;2023-04-12T02:50:29;100226.47;;;3.82;100.00
75460;BME280;64039;53.060;9.342;2023-04-12T02:52:55;100225.84;;;3.88;100.00
75460;BME280;64039;53.060;9.342;2023-04-12T02:55:20;100218.13;;;3.88;100.00
75460;BME280;64039;53.060;9.342;2023-04-12T02:57:46;100213.16;;;3.92;100.00
75460;BME280;64039;53.060;9.342;2023-04-12T03:00:13;100209.22;;;4.02;100.00
75460;BME280;64039;53.060;9.342;2023-04-12T03:02:45;100207.28;;;3.97;100.00
75460;BME280;64039;53.060;9.342;2023-04-12T03:05:10;100198.69;;;3.96;100.00
75460;BME280;64039;53.060;9.342;2023-04-12T03:07:36;100189.66;;;4.07;100.00
75460;BME280;64039;53.060;9.342;2023-04-12T03:10:02;100183.50;;;4.04;100.00
75460;BME280;64039;53.060;9.342;2023-04-12T03:12:30;100185.91;;;3.99;100.00
75460;BME280;64039;53.060;9.342;2023-04-12T03:14:55;100172.38;;;3.81;100.00
75460;BME280;64039;53.060;9.342;2023-04-12T03:17:21;100161.88;;;3.99;100.00
75460;BME280;64039;53.060;9.342;2023-04-12T03:19:47;100153.50;;;4.04;100.00
75460;BME280;64039;53.060;9.342;2023-04-12T03:22:13;100149.75;;;3.96;100.00
75460;BME280;64039;53.060;9.342;2023-04-12T03:24:38;100150.59;;;3.95;100.00
75460;BME280;64039;53.060;9.342;2023-04-12T03:27:08;100139.97;;;4.10;100.00
75460;BME280;64039;53.060;9.342;2023-04-12T03:29:34;100132.00;;;4.04;100.00
75460;BME280;64039;53.060;9.342;2023-04-12T03:31:59;100137.06;;;4.01;100.00
75460;BME280;64039;53.060;9.342;2023-04-12T03:34:25;100126.75;;;4.01;100.00
75460;BME280;64039;53.060;9.342;2023-04-12T03:36:58;100127.84;;;4.07;100.00
75460;BME280;64039;53.060;9.342;2023-04-12T03:39:23;100127.09;;;4.10;100.00
75460;BME280;64039;53.060;9.342;2023-04-12T03:41:49;100114.22;;;4.10;100.00
75460;BME280;64039;53.060;9.342;2023-04-12T03:44:15;100118.31;;;4.05;100.00
75460;BME280;64039;53.060;9.342;2023-04-12T03:46:40;100111.34;;;4.02;100.00
75460;BME280;64039;53.060;9.342;2023-04-12T03:49:06;100109.50;;;3.98;100.00
75460;BME280;64039;53.060;9.342;2023-04-12T03:51:31;100092.28;;;3.97;100.00
75460;BME280;64039;53.060;9.342;2023-04-12T03:53:57;100089.97;;;4.05;100.00
75460;BME280;64039;53.060;9.342;2023-04-12T03:56:23;100085.28;;;3.93;100.00
75460;BME280;64039;53.060;9.342;2023-04-12T03:58:48;100079.94;;;3.88;100.00
75460;BME280;64039;53.060;9.342;2023-04-12T04:01:14;100074.16;;;3.94;100.00
75460;BME280;64039;53.060;9.342;2023-04-12T04:03:42;100069.66;;;3.88;100.00
75460;BME280;64039;53.060;9.342;2023-04-12T04:06:09;100069.34;;;4.03;100.00
75460;BME280;64039;53.060;9.342;2023-04-12T04:08:36;100067.63;;;4.04;100.00
75460;BME280;64039;53.060;9.342;2023-04-12T04:11:02;100065.59;;;3.95;100.00
75460;BME280;64039;53.060;9.342;2023-04-12T04:13:27;100059.34;;;3.88;100.00
75460;BME280;64039;53.060;9.342;2023-04-12T04:16:05;100059.34;;;3.88;100.00
75460;BME280;64039;53.060;9.342;2023-04-12T04:18:31;100056.28;;;3.99;100.00
75460;BME280;64039;53.060;9.342;2023-04-12T04:20:57;100047.03;;;4.04;100.00
75460;BME280;64039;53.060;9.342;2023-04-12T04:23:23;100040.88;;;4.00;100.00
75460;BME280;64039;53.060;9.342;2023-04-12T04:25:48;100041.66;;;3.98;100.00
75460;BME280;64039;53.060;9.342;2023-04-12T04:28:15;100035.56;;;3.96;100.00
75460;BME280;64039;53.060;9.342;2023-04-12T04:30:41;100030.25;;;3.91;100.00
75460;BME280;64039;53.060;9.342;2023-04-12T04:33:10;100038.09;;;3.94;100.00
75460;BME280;64039;53.060;9.342;2023-04-12T04:35:38;100036.75;;;3.80;100.00
75460;BME280;64039;53.060;9.342;2023-04-12T04:38:04;100028.13;;;3.79;100.00
75460;BME280;64039;53.060;9.342;2023-04-12T04:40:31;100020.91;;;3.93;100.00
75460;BME280;64039;53.060;9.342;2023-04-12T04:42:56;100016.31;;;3.84;100.00
75460;BME280;64039;53.060;9.342;2023-04-12T04:45:23;100011.81;;;3.78;100.00
75460;BME280;64039;53.060;9.342;2023-04-12T04:47:52;100010.72;;;3.72;100.00
75460;BME280;64039;53.060;9.342;2023-04-12T04:50:18;100006.19;;;3.65;100.00
75460;BME280;64039;53.060;9.342;2023-04-12T04:52:43;100010.50;;;3.66;100.00
75460;BME280;64039;53.060;9.342;2023-04-12T04:55:09;100005.56;;;3.72;100.00
75460;BME280;64039;53.060;9.342;2023-04-12T04:57:35;100005.84;;;3.80;100.00
75460;BME280;64039;53.060;9.342;2023-04-12T05:00:01;100006.28;;;3.92;100.00
75460;BME280;64039;53.060;9.342;2023-04-12T05:02:35;100001.53;;;3.78;100.00
75460;BME280;64039;53.060;9.342;2023-04-12T05:05:01;99997.34;;;3.82;100.00
75460;BME280;64039;53.060;9.342;2023-04-12T05:07:28;99993.94;;;3.82;100.00
75460;BME280;64039;53.060;9.342;2023-04-12T05:09:54;99981.91;;;3.82;100.00
75460;BME280;64039;53.060;9.342;2023-04-12T05:12:19;99982.19;;;3.90;100.00
75460;BME280;64039;53.060;9.342;2023-04-12T05:14:45;99985.50;;;3.87;100.00
75460;BME280;64039;53.060;9.342;2023-04-12T05:17:11;99982.91;;;3.86;100.00
75460;BME280;64039;53.060;9.342;2023-04-12T05:19:36;99977.59;;;4.07;100.00
75460;BME280;64039;53.060;9.342;2023-04-12T05:22:01;99987.78;;;4.04;100.00
75460;BME280;64039;53.060;9.342;2023-04-12T05:24:27;99981.19;;;4.12;100.00
75460;BME280;64039;53.060;9.342;2023-04-12T05:26:52;99974.56;;;4.19;100.00
75460;BME280;64039;53.060;9.342;2023-04-12T05:29:17;99972.88;;;4.19;100.00
75460;BME280;64039;53.060;9.342;2023-04-12T05:31:43;99970.34;;;4.21;100.00
75460;BME280;64039;53.060;9.342;2023-04-12T05:34:08;99967.31;;;4.33;100.00
75460;BME280;64039;53.060;9.342;2023-04-12T05:36:34;99962.19;;;4.34;100.00
75460;BME280;64039;53.060;9.342;2023-04-12T05:38:59;99963.31;;;4.43;100.00
75460;BME280;64039;53.060;9.342;2023-04-12T05:41:24;99961.50;;;4.40;100.00
75460;BME280;64039;53.060;9.342;2023-04-12T05:43:50;99947.66;;;4.64;100.00
75460;BME280;64039;53.060;9.342;2023-04-12T05:46:17;99957.41;;;4.72;100.00
75460;BME280;64039;53.060;9.342;2023-04-12T05:48:42;99955.94;;;4.81;100.00
75460;BME280;64039;53.060;9.342;2023-04-12T05:51:07;99946.25;;;5.02;100.00
75460;BME280;64039;53.060;9.342;2023-04-12T05:53:33;99949.50;;;5.26;100.00
75460;BME280;64039;53.060;9.342;2023-04-12T05:55:58;99942.06;;;5.37;100.00
75460;BME280;64039;53.060;9.342;2023-04-12T05:58:24;99935.50;;;5.48;100.00
75460;BME280;64039;53.060;9.342;2023-04-12T06:00:49;99928.75;;;5.53;100.00
75460;BME280;64039;53.060;9.342;2023-04-12T06:03:15;99929.66;;;5.55;99.99
75460;BME280;64039;53.060;9.342;2023-04-12T06:05:41;99923.81;;;5.61;99.38
75460;BME280;64039;53.060;9.342;2023-04-12T06:08:06;99912.03;;;5.72;100.00
75460;BME280;64039;53.060;9.342;2023-04-12T06:10:32;99912.13;;;5.75;97.81
75460;BME280;64039;53.060;9.342;2023-04-12T06:12:58;99913.72;;;5.70;99.83
75460;BME280;64039;53.060;9.342;2023-04-12T06:15:23;99904.34;;;5.74;99.94
75460;BME280;64039;53.060;9.342;2023-04-12T06:17:48;99909.31;;;5.67;98.85
75460;BME280;64039;53.060;9.342;2023-04-12T06:20:15;99912.94;;;5.74;100.00
75460;BME280;64039;53.060;9.342;2023-04-12T06:22:41;99909.56;;;5.77;99.23
75460;BME280;64039;53.060;9.342;2023-04-12T06:25:07;99901.16;;;5.84;100.00
75460;BME280;64039;53.060;9.342;2023-04-12T06:27:32;99888.41;;;5.90;98.50
75460;BME280;64039;53.060;9.342;2023-04-12T06:29:58;99887.59;;;5.93;96.69
75460;BME280;64039;53.060;9.342;2023-04-12T06:32:23;99884.94;;;5.90;98.10
75460;BME280;64039;53.060;9.342;2023-04-12T06:34:49;99876.19;;;5.83;98.88
75460;BME280;64039;53.060;9.342;2023-04-12T06:37:14;99880.56;;;5.87;99.64
75460;BME280;64039;53.060;9.342;2023-04-12T06:39:40;99880.06;;;6.01;99.01
75460;BME280;64039;53.060;9.342;2023-04-12T06:42:05;99881.72;;;5.98;98.10
75460;BME280;64039;53.060;9.342;2023-04-12T06:44:30;99869.31;;;5.85;98.07
75460;BME280;64039;53.060;9.342;2023-04-12T06:46:57;99861.81;;;5.94;98.33
75460;BME280;64039;53.060;9.342;2023-04-12T06:49:23;99871.84;;;5.82;100.00
75460;BME280;64039;53.060;9.342;2023-04-12T06:51:48;99868.81;;;5.98;99.62
75460;BME280;64039;53.060;9.342;2023-04-12T06:54:14;99858.69;;;6.06;100.00
75460;BME280;64039;53.060;9.342;2023-04-12T06:56:39;99862.16;;;6.07;99.27
75460;BME280;64039;53.060;9.342;2023-04-12T06:59:05;99858.75;;;6.09;99.83
75460;BME280;64039;53.060;9.342;2023-04-12T07:01:30;99855.34;;;6.10;100.00
75460;BME280;64039;53.060;9.342;2023-04-12T07:03:56;99851.16;;;6.16;100.00
75460;BME280;64039;53.060;9.342;2023-04-12T07:06:21;99844.75;;;6.00;99.28
75460;BME280;64039;53.060;9.342;2023-04-12T07:08:47;99836.44;;;6.13;98.62
75460;BME280;64039;53.060;9.342;2023-04-12T07:11:12;99829.78;;;6.23;98.49
75460;BME280;64039;53.060;9.342;2023-04-12T07:13:38;99816.34;;;6.39;99.19
75460;BME280;64039;53.060;9.342;2023-04-12T07:16:03;99809.69;;;6.49;97.72
75460;BME280;64039;53.060;9.342;2023-04-12T07:18:29;99811.44;;;6.50;98.58
75460;BME280;64039;53.060;9.342;2023-04-12T07:20:55;99800.84;;;6.39;95.85
75460;BME280;64039;53.060;9.342;2023-04-12T07:23:23;99791.59;;;6.49;96.37
75460;BME280;64039;53.060;9.342;2023-04-12T07:25:50;99789.13;;;6.54;98.81
75460;BME280;64039;53.060;9.342;2023-04-12T07:28:18;99784.78;;;6.53;99.58
75460;BME280;64039;53.060;9.342;2023-04-12T07:30:44;99782.97;;;6.49;98.24
75460;BME280;64039;53.060;9.342;2023-04-12T07:33:10;99781.66;;;6.69;97.92
75460;BME280;64039;53.060;9.342;2023-04-12T07:35:35;99780.94;;;6.75;97.21
75460;BME280;64039;53.060;9.342;2023-04-12T07:38:01;99779.28;;;6.79;97.23
75460;BME280;64039;53.060;9.342;2023-04-12T07:40:27;99765.44;;;6.76;97.99
75460;BME280;64039;53.060;9.342;2023-04-12T07:42:52;99765.78;;;6.95;97.10
75460;BME280;64039;53.060;9.342;2023-04-12T07:45:18;99762.69;;;7.15;98.65
75460;BME280;64039;53.060;9.342;2023-04-12T07:47:44;99752.47;;;7.21;94.45
75460;BME280;64039;53.060;9.342;2023-04-12T07:50:09;99743.97;;;7.30;94.44
75460;BME280;64039;53.060;9.342;2023-04-12T07:52:35;99724.19;;;7.35;96.28
75460;BME280;64039;53.060;9.342;2023-04-12T07:55:00;99732.75;;;7.29;94.63
75460;BME280;64039;53.060;9.342;2023-04-12T07:57:26;99727.75;;;7.40;94.95
75460;BME280;64039;53.060;9.342;2023-04-12T07:59:52;99726.19;;;7.50;95.22
75460;BME280;64039;53.060;9.342;2023-04-12T08:02:17;99714.13;;;7.50;94.65
75460;BME280;64039;53.060;9.342;2023-04-12T08:04:54;99706.22;;;7.43;95.19
75460;BME280;64039;53.060;9.342;2023-04-12T08:07:20;99710.69;;;7.53;95.87
75460;BME280;64039;53.060;9.342;2023-04-12T08:09:49;99696.31;;;7.72;95.48
75460;BME280;64039;53.060;9.342;2023-04-12T08:12:15;99694.63;;;7.76;94.12
75460;BME280;64039;53.060;9.342;2023-04-12T08:14:40;99685.25;;;7.85;93.98
75460;BME280;64039;53.060;9.342;2023-04-12T08:17:06;99687.13;;;7.96;93.90
75460;BME280;64039;53.060;9.342;2023-04-12T08:19:32;99679.50;;;8.07;94.17
75460;BME280;64039;53.060;9.342;2023-04-12T08:21:57;99682.19;;;8.13;93.89
75460;BME280;64039;53.060;9.342;2023-04-12T08:24:23;99674.59;;;8.28;92.27
75460;BME280;64039;53.060;9.342;2023-04-12T08:26:49;99672.81;;;8.24;92.31
75460;BME280;64039;53.060;9.342;2023-04-12T08:29:16;99670.47;;;8.46;91.76
75460;BME280;64039;53.060;9.342;2023-04-12T08:31:42;99671.63;;;8.71;91.53
75460;BME280;64039;53.060;9.342;2023-04-12T08:34:07;99664.84;;;8.84;91.26
75460;BME280;64039;53.060;9.342;2023-04-12T08:36:32;99661.69;;;9.21;90.95
75460;BME280;64039;53.060;9.342;2023-04-12T08:38:59;99656.59;;;9.28;90.76
75460;BME280;64039;53.060;9.342;2023-04-12T08:41:24;99650.47;;;9.22;89.69
75460;BME280;64039;53.060;9.342;2023-04-12T08:43:51;99654.03;;;9.33;89.66
75460;BME280;64039;53.060;9.342;2023-04-12T08:46:16;99653.16;;;9.37;90.25
75460;BME280;64039;53.060;9.342;2023-04-12T08:48:44;99657.38;;;9.20;92.20
75460;BME280;64039;53.060;9.342;2023-04-12T08:51:12;99644.38;;;9.18;94.57
75460;BME280;64039;53.060;9.342;2023-04-12T08:53:39;99655.50;;;9.03;94.94
75460;BME280;64039;53.060;9.342;2023-04-12T08:56:06;99654.59;;;8.98;97.73
75460;BME280;64039;53.060;9.342;2023-04-12T08:58:33;99656.25;;;8.90;99.03
75460;BME280;64039;53.060;9.342;2023-04-12T09:01:00;99647.56;;;8.85;100.00
75460;BME280;64039;53.060;9.342;2023-04-12T09:03:25;99651.06;;;8.90;100.00
75460;BME280;64039;53.060;9.342;2023-04-12T09:05:52;99650.88;;;8.68;100.00
75460;BME280;64039;53.060;9.342;2023-04-12T09:08:17;99643.09;;;8.70;100.00
75460;BME280;64039;53.060;9.342;2023-04-12T09:10:43;99639.53;;;8.60;100.00
75460;BME280;64039;53.060;9.342;2023-04-12T09:13:08;99640.44;;;8.63;100.00
75460;BME280;64039;53.060;9.342;2023-04-12T09:15:34;99642.91;;;8.53;100.00
75460;BME280;64039;53.060;9.342;2023-04-12T09:18:10;99627.72;;;8.10;100.00
75460;BME280;64039;53.060;9.342;2023-04-12T09:20:36;99628.56;;;8.10;100.00
75460;BME280;64039;53.060;9.342;2023-04-12T09:23:28;99629.75;;;8.36;100.00
75460;BME280;64039;53.060;9.342;2023-04-12T09:25:54;99629.56;;;8.22;100.00
75460;BME280;64039;53.060;9.342;2023-04-12T09:28:22;99624.28;;;8.12;100.00
75460;BME280;64039;53.060;9.342;2023-04-12T09:30:50;99623.31;;;8.02;100.00
75460;BME280;64039;53.060;9.342;2023-04-12T09:33:17;99622.41;;;8.02;100.00
75460;BME280;64039;53.060;9.342;2023-04-12T09:35:43;99613.91;;;8.12;100.00
75460;BME280;64039;53.060;9.342;2023-04-12T09:38:09;99610.38;;;8.04;100.00
75460;BME280;64039;53.060;9.342;2023-04-12T09:40:35;99604.25;;;7.99;100.00
75460;BME280;64039;53.060;9.342;2023-04-12T09:43:01;99604.19;;;7.93;100.00
75460;BME280;64039;53.060;9.342;2023-04-12T09:45:28;99605.34;;;8.19;100.00
75460;BME280;64039;53.060;9.342;2023-04-12T09:47:56;99599.50;;;8.38;100.00
75460;BME280;64039;53.060;9.342;2023-04-12T09:50:22;99600.47;;;8.46;100.00
75460;BME280;64039;53.060;9.342;2023-04-12T09:52:48;99596.94;;;8.38;100.00
75460;BME280;64039;53.060;9.342;2023-04-12T09:55:14;99585.41;;;8.12;100.00
75460;BME280;64039;53.060;9.342;2023-04-12T09:57:42;99592.44;;;8.23;100.00
75460;BME280;64039;53.060;9.342;2023-04-12T10:00:10;99589.94;;;8.32;100.00
75460;BME280;64039;53.060;9.342;2023-04-12T10:02:43;99579.53;;;8.27;100.00
75460;BME280;64039;53.060;9.342;2023-04-12T10:05:10;99570.94;;;8.34;100.00
75460;BME280;64039;53.060;9.342;2023-04-12T10:07:41;99568.53;;;8.47;100.00
75460;BME280;64039;53.060;9.342;2023-04-12T10:10:07;99572.88;;;8.51;100.00
75460;BME280;64039;53.060;9.342;2023-04-12T10:12:35;99564.81;;;8.25;100.00
75460;BME280;64039;53.060;9.342;2023-04-12T10:15:04;99563.81;;;8.13;100.00
75460;BME280;64039;53.060;9.342;2023-04-12T10:17:48;99569.00;;;8.12;100.00
75460;BME280;64039;53.060;9.342;2023-04-12T10:20:16;99564.78;;;8.23;100.00
75460;BME280;64039;53.060;9.342;2023-04-12T10:22:45;99563.97;;;8.27;100.00
75460;BME280;64039;53.060;9.342;2023-04-12T10:25:15;99559.63;;;8.26;100.00
75460;BME280;64039;53.060;9.342;2023-04-12T10:27:43;99558.94;;;8.41;100.00
75460;BME280;64039;53.060;9.342;2023-04-12T10:32:48;99552.91;;;8.45;100.00
75460;BME280;64039;53.060;9.342;2023-04-12T10:35:13;99542.69;;;8.61;100.00
75460;BME280;64039;53.060;9.342;2023-04-12T10:40:28;99535.56;;;8.38;100.00
75460;BME280;64039;53.060;9.342;2023-04-12T10:43:26;99529.44;;;8.31;100.00
75460;BME280;64039;53.060;9.342;2023-04-12T10:45:52;99523.34;;;8.28;100.00
75460;BME280;64039;53.060;9.342;2023-04-12T10:48:37;99535.50;;;8.30;100.00
75460;BME280;64039;53.060;9.342;2023-04-12T10:51:15;99531.91;;;8.17;100.00
75460;BME280;64039;53.060;9.342;2023-04-12T10:53:48;99525.78;;;8.12;100.00
75460;BME280;64039;53.060;9.342;2023-04-12T10:59:00;99531.03;;;8.17;100.00
75460;BME280;64039;53.060;9.342;2023-04-12T11:01:27;99529.28;;;8.14;100.00
75460;BME280;64039;53.060;9.342;2023-04-12T11:19:41;99508.81;;;8.45;100.00
75460;BME280;64039;53.060;9.342;2023-04-12T11:22:12;99522.75;;;8.54;100.00
75460;BME280;64039;53.060;9.342;2023-04-12T11:27:04;99519.09;;;8.33;100.00
75460;BME280;64039;53.060;9.342;2023-04-12T11:29:29;99517.41;;;8.37;100.00
75460;BME280;64039;53.060;9.342;2023-04-12T11:31:57;99504.63;;;8.57;100.00
75460;BME280;64039;53.060;9.342;2023-04-12T11:34:23;99496.63;;;8.32;100.00
75460;BME280;64039;53.060;9.342;2023-04-12T11:36:52;99496.66;;;8.37;100.00
75460;BME280;64039;53.060;9.342;2023-04-12T11:39:18;99493.94;;;8.24;100.00
75460;BME280;64039;53.060;9.342;2023-04-12T11:41:48;99497.47;;;8.31;100.00
75460;BME280;64039;53.060;9.342;2023-04-12T11:44:14;99493.19;;;8.36;100.00
75460;BME280;64039;53.060;9.342;2023-04-12T11:46:43;99490.75;;;8.50;100.00
75460;BME280;64039;53.060;9.342;2023-04-12T11:49:08;99493.38;;;8.55;100.00
75460;BME280;64039;53.060;9.342;2023-04-12T11:51:34;99483.16;;;8.72;100.00
75460;BME280;64039;53.060;9.342;2023-04-12T11:54:00;99488.34;;;8.73;100.00
75460;BME280;64039;53.060;9.342;2023-04-12T11:56:27;99481.41;;;8.74;100.00
75460;BME280;64039;53.060;9.342;2023-04-12T11:58:53;99483.06;;;8.65;100.00
75460;BME280;64039;53.060;9.342;2023-04-12T12:01:19;99483.88;;;8.55;100.00
75460;BME280;64039;53.060;9.342;2023-04-12T12:03:46;99483.75;;;8.44;100.00
75460;BME280;64039;53.060;9.342;2023-04-12T12:06:12;99478.69;;;8.55;100.00
75460;BME280;64039;53.060;9.342;2023-04-12T12:08:38;99479.69;;;8.73;100.00
75460;BME280;64039;53.060;9.342;2023-04-12T12:11:04;99467.72;;;8.98;100.00
75460;BME280;64039;53.060;9.342;2023-04-12T12:13:47;99466.94;;;9.11;100.00
75460;BME280;64039;53.060;9.342;2023-04-12T12:16:14;99463.53;;;9.23;100.00
75460;BME280;64039;53.060;9.342;2023-04-12T12:18:41;99465.34;;;9.41;100.00
75460;BME280;64039;53.060;9.342;2023-04-12T12:21:08;99457.47;;;9.23;100.00
75460;BME280;64039;53.060;9.342;2023-04-12T12:23:34;99455.75;;;9.25;100.00
75460;BME280;64039;53.060;9.342;2023-04-12T12:26:01;99454.94;;;9.37;100.00
75460;BME280;64039;53.060;9.342;2023-04-12T12:28:28;99448.81;;;9.21;100.00
75460;BME280;64039;53.060;9.342;2023-04-12T12:30:57;99441.88;;;9.17;100.00
75460;BME280;64039;53.060;9.342;2023-04-12T12:33:23;99440.09;;;9.08;100.00
75460;BME280;64039;53.060;9.342;2023-04-12T12:35:58;99441.09;;;9.38;100.00
75460;BME280;64039;53.060;9.342;2023-04-12T12:38:23;99432.41;;;9.26;100.00
75460;BME280;64039;53.060;9.342;2023-04-12T12:40:49;99437.56;;;9.22;100.00
75460;BME280;64039;53.060;9.342;2023-04-12T12:43:18;99432.34;;;9.17;100.00
75460;BME280;64039;53.060;9.342;2023-04-12T12:45:45;99432.34;;;9.11;100.00
75460;BME280;64039;53.060;9.342;2023-04-12T12:48:11;99428.84;;;9.03;100.00
75460;BME280;64039;53.060;9.342;2023-04-12T12:50:37;99437.50;;;9.05;100.00
75460;BME280;64039;53.060;9.342;2023-04-12T12:53:03;99433.91;;;8.83;100.00
75460;BME280;64039;53.060;9.342;2023-04-12T12:55:31;99432.19;;;8.88;100.00
75460;BME280;64039;53.060;9.342;2023-04-12T12:57:57;99424.38;;;8.81;100.00
75460;BME280;64039;53.060;9.342;2023-04-12T13:00:25;99427.06;;;8.94;100.00
75460;BME280;64039;53.060;9.342;2023-04-12T13:02:52;99421.91;;;9.08;100.00
75460;BME280;64039;53.060;9.342;2023-04-12T13:05:18;99413.31;;;9.12;100.00
75460;BME280;64039;53.060;9.342;2023-04-12T13:07:44;99419.34;;;9.11;100.00
75460;BME280;64039;53.060;9.342;2023-04-12T13:10:10;99417.56;;;9.01;100.00
75460;BME280;64039;53.060;9.342;2023-04-12T13:12:35;99421.91;;;9.08;100.00
75460;BME280;64039;53.060;9.342;2023-04-12T13:15:01;99415.00;;;9.04;100.00
75460;BME280;64039;53.060;9.342;2023-04-12T13:17:27;99417.66;;;9.18;100.00
75460;BME280;64039;53.060;9.342;2023-04-12T13:19:53;99413.31;;;9.18;100.00
75460;BME280;64039;53.060;9.342;2023-04-12T13:22:19;99415.91;;;9.10;100.00
75460;BME280;64039;53.060;9.342;2023-04-12T13:24:45;99413.28;;;9.15;100.00
75460;BME280;64039;53.060;9.342;2023-04-12T13:27:11;99409.84;;;9.08;100.00
75460;BME280;64039;53.060;9.342;2023-04-12T13:29:37;99396.03;;;9.26;100.00